createdAt,value
2018-12-03T00:00:11.317Z,941.76
2018-12-03T00:01:11.306Z,941.8
2018-12-03T00:02:11.294Z,941.79
2018-12-03T00:03:11.285Z,941.79
2018-12-03T00:04:11.273Z,941.81
2018-12-03T00:05:11.261Z,941.74
2018-12-03T00:06:11.252Z,941.75
2018-12-03T00:07:11.239Z,941.75
2018-12-03T00:08:11.228Z,941.7
2018-12-03T00:09:11.219Z,941.75
2018-12-03T00:10:11.207Z,941.78
2018-12-03T00:11:11.195Z,941.8
2018-12-03T00:12:11.183Z,941.76
2018-12-03T00:13:11.172Z,941.78
2018-12-03T00:14:11.162Z,941.77
2018-12-03T00:15:11.151Z,941.84
2018-12-03T00:16:11.139Z,941.84
2018-12-03T00:17:11.128Z,941.86
2018-12-03T00:18:11.117Z,941.91
2018-12-03T00:19:11.106Z,941.91
2018-12-03T00:20:11.094Z,941.94
2018-12-03T00:21:11.132Z,941.94
2018-12-03T00:22:11.073Z,941.94
2018-12-03T00:23:11.063Z,941.97
2018-12-03T00:24:11.050Z,941.99
2018-12-03T00:25:11.038Z,941.99
2018-12-03T00:26:11.028Z,942.03
2018-12-03T00:27:11.016Z,942.04
2018-12-03T00:28:11.005Z,942.05
2018-12-03T00:29:10.995Z,942.12
2018-12-03T00:30:10.984Z,942.14
2018-12-03T00:31:10.973Z,942.16
2018-12-03T00:32:10.963Z,942.09
2018-12-03T00:33:10.950Z,942.11
2018-12-03T00:34:10.939Z,942.09
2018-12-03T00:35:10.930Z,942.13
2018-12-03T00:36:11.117Z,942.13
2018-12-03T00:37:10.906Z,942.08
2018-12-03T00:38:10.893Z,942.1
2018-12-03T00:39:10.882Z,942.12
2018-12-03T00:40:10.875Z,942.14
2018-12-03T00:41:10.861Z,942.11
2018-12-03T00:42:10.849Z,942.05
2018-12-03T00:43:10.838Z,942.05
2018-12-03T00:44:10.830Z,942.12
2018-12-03T00:45:10.815Z,942.12
2018-12-03T00:46:10.806Z,942.14
2018-12-03T00:47:10.793Z,942.07
2018-12-03T00:48:10.783Z,942.07
2018-12-03T00:49:10.771Z,942.13
2018-12-03T00:50:10.764Z,942.12
2018-12-03T00:51:10.749Z,942.09
2018-12-03T00:52:10.739Z,942.12
2018-12-03T00:53:10.727Z,942.11
2018-12-03T00:54:10.718Z,942.11
2018-12-03T00:55:10.705Z,942.12
2018-12-03T00:56:10.693Z,942.11
2018-12-03T00:57:10.683Z,942.03
2018-12-03T00:58:10.671Z,942.08
2018-12-03T00:59:10.661Z,942.08
2018-12-03T01:00:10.649Z,942.06
2018-12-03T01:01:10.638Z,942.09
2018-12-03T01:02:10.627Z,942.04
2018-12-03T01:03:10.617Z,942.13
2018-12-03T01:04:10.607Z,942.08
2018-12-03T01:05:10.595Z,942.09
2018-12-03T01:06:10.586Z,942.09
2018-12-03T01:07:10.572Z,942.13
2018-12-03T01:08:10.562Z,942.11
2018-12-03T01:09:10.552Z,942.11
2018-12-03T01:10:10.540Z,942.09
2018-12-03T01:11:10.528Z,942.04
2018-12-03T01:12:10.517Z,942.01
2018-12-03T01:13:10.507Z,942.01
2018-12-03T01:14:10.495Z,941.97
2018-12-03T01:15:10.485Z,942.02
2018-12-03T01:16:10.473Z,942.01
2018-12-03T01:17:10.463Z,942.01
2018-12-03T01:18:10.451Z,941.93
2018-12-03T01:19:10.440Z,941.94
2018-12-03T01:20:10.430Z,941.9
2018-12-03T01:21:10.419Z,941.88
2018-12-03T01:22:10.407Z,941.9
2018-12-03T01:23:10.395Z,941.92
2018-12-03T01:24:10.386Z,941.9
2018-12-03T01:25:10.374Z,941.86
2018-12-03T01:26:10.363Z,941.84
2018-12-03T01:27:10.353Z,941.85
2018-12-03T01:28:10.341Z,941.88
2018-12-03T01:29:10.330Z,941.83
2018-12-03T01:30:10.319Z,941.84
2018-12-03T01:31:10.308Z,941.84
2018-12-03T01:32:10.297Z,941.82
2018-12-03T01:33:10.286Z,941.85
2018-12-03T01:34:10.275Z,941.84
2018-12-03T01:35:10.265Z,941.84
2018-12-03T01:36:10.253Z,941.87
2018-12-03T01:37:10.245Z,941.88
2018-12-03T01:38:10.231Z,941.9
2018-12-03T01:39:10.222Z,941.84
2018-12-03T01:40:10.208Z,941.82
2018-12-03T01:41:10.198Z,941.8
2018-12-03T01:42:10.187Z,941.78
2018-12-03T01:43:10.176Z,941.8
2018-12-03T01:44:10.164Z,941.8
2018-12-03T01:45:10.153Z,941.78
2018-12-03T01:46:10.142Z,941.82
2018-12-03T01:47:10.130Z,941.77
2018-12-03T01:48:10.120Z,941.76
2018-12-03T01:49:10.109Z,941.76
2018-12-03T01:50:10.099Z,941.75
2018-12-03T01:51:10.086Z,941.76
2018-12-03T01:52:10.076Z,941.8
2018-12-03T01:53:10.066Z,941.75
2018-12-03T01:54:10.055Z,941.75
2018-12-03T01:55:10.044Z,941.78
2018-12-03T01:56:10.032Z,941.73
2018-12-03T01:57:10.021Z,941.73
2018-12-03T01:58:10.009Z,941.7
2018-12-03T01:59:09.999Z,941.67
2018-12-03T02:00:09.988Z,941.7
2018-12-03T02:01:09.977Z,941.71
2018-12-03T02:02:09.965Z,941.68
2018-12-03T02:03:09.954Z,941.69
2018-12-03T02:04:09.943Z,941.61
2018-12-03T02:05:09.932Z,941.61
2018-12-03T02:06:09.921Z,941.65
2018-12-03T02:07:09.910Z,941.68
2018-12-03T02:08:09.899Z,941.7
2018-12-03T02:09:09.887Z,941.67
2018-12-03T02:10:09.877Z,941.68
2018-12-03T02:11:09.865Z,941.71
2018-12-03T02:12:09.856Z,941.7
2018-12-03T02:13:09.843Z,941.67
2018-12-03T02:14:09.833Z,941.66
2018-12-03T02:15:09.822Z,941.65
2018-12-03T02:16:09.811Z,941.65
2018-12-03T02:17:09.799Z,941.61
2018-12-03T02:18:09.789Z,941.64
2018-12-03T02:19:09.779Z,941.6
2018-12-03T02:20:09.765Z,941.58
2018-12-03T02:21:09.755Z,941.59
2018-12-03T02:22:09.744Z,941.6
2018-12-03T02:23:09.734Z,941.62
2018-12-03T02:24:09.723Z,941.57
2018-12-03T02:25:09.711Z,941.5
2018-12-03T02:26:09.708Z,941.51
2018-12-03T02:27:09.690Z,941.49
2018-12-03T02:28:09.678Z,941.47
2018-12-03T02:29:09.667Z,941.49
2018-12-03T02:30:09.657Z,941.44
2018-12-03T02:31:09.646Z,941.46
2018-12-03T02:32:09.635Z,941.45
2018-12-03T02:33:09.623Z,941.39
2018-12-03T02:34:09.615Z,941.39
2018-12-03T02:35:09.600Z,941.34
2018-12-03T02:36:09.590Z,941.37
2018-12-03T02:37:09.580Z,941.32
2018-12-03T02:38:09.569Z,941.32
2018-12-03T02:39:09.560Z,941.33
2018-12-03T02:40:09.547Z,941.35
2018-12-03T02:41:09.537Z,941.38
2018-12-03T02:42:09.526Z,941.35
2018-12-03T02:43:09.519Z,941.31
2018-12-03T02:44:09.507Z,941.36
2018-12-03T02:45:09.492Z,941.35
2018-12-03T02:46:09.494Z,941.39
2018-12-03T02:47:09.475Z,941.36
2018-12-03T02:48:09.462Z,941.36
2018-12-03T02:49:09.448Z,941.33
2018-12-03T02:50:09.438Z,941.37
2018-12-03T02:51:09.426Z,941.39
2018-12-03T02:52:09.416Z,941.4
2018-12-03T02:53:09.404Z,941.34
2018-12-03T02:54:09.393Z,941.38
2018-12-03T02:55:09.383Z,941.37
2018-12-03T02:56:09.374Z,941.38
2018-12-03T02:57:09.361Z,941.36
2018-12-03T02:58:09.350Z,941.28
2018-12-03T02:59:09.349Z,941.29
2018-12-03T03:00:09.328Z,941.31
2018-12-03T03:01:09.318Z,941.31
2018-12-03T03:02:09.306Z,941.3
2018-12-03T03:03:09.297Z,941.26
2018-12-03T03:04:09.284Z,941.25
2018-12-03T03:05:09.273Z,941.27
2018-12-03T03:06:09.271Z,941.29
2018-12-03T03:07:09.260Z,941.27
2018-12-03T03:08:09.241Z,941.26
2018-12-03T03:09:09.230Z,941.21
2018-12-03T03:10:09.219Z,941.19
2018-12-03T03:11:09.209Z,941.18
2018-12-03T03:12:09.197Z,941.22
2018-12-03T03:13:09.186Z,941.26
2018-12-03T03:14:09.176Z,941.19
2018-12-03T03:15:09.171Z,941.19
2018-12-03T03:16:09.153Z,941.2
2018-12-03T03:17:09.144Z,941.14
2018-12-03T03:18:09.132Z,941.16
2018-12-03T03:19:09.126Z,941.16
2018-12-03T03:20:09.110Z,941.2
2018-12-03T03:21:09.099Z,941.13
2018-12-03T03:22:09.088Z,941.17
2018-12-03T03:23:09.078Z,941.14
2018-12-03T03:24:09.067Z,941.14
2018-12-03T03:25:09.057Z,941.13
2018-12-03T03:26:09.043Z,941.15
2018-12-03T03:27:09.034Z,941.06
2018-12-03T03:28:09.022Z,941.04
2018-12-03T03:29:09.014Z,941.03
2018-12-03T03:30:09.001Z,941.03
2018-12-03T03:31:08.990Z,941.07
2018-12-03T03:32:08.981Z,941.03
2018-12-03T03:33:08.968Z,941.05
2018-12-03T03:34:08.956Z,941.06
2018-12-03T03:35:08.948Z,941.01
2018-12-03T03:36:08.939Z,941.05
2018-12-03T03:37:08.923Z,941.06
2018-12-03T03:38:08.912Z,941.08
2018-12-03T03:39:08.902Z,941.06
2018-12-03T03:40:08.890Z,941.08
2018-12-03T03:41:08.879Z,941.02
2018-12-03T03:42:08.873Z,941.07
2018-12-03T03:43:08.860Z,941.11
2018-12-03T03:44:08.848Z,941.09
2018-12-03T03:45:08.836Z,941.14
2018-12-03T03:46:08.826Z,941.17
2018-12-03T03:47:08.825Z,941.17
2018-12-03T03:48:08.804Z,941.29
2018-12-03T03:49:08.792Z,941.27
2018-12-03T03:50:08.782Z,941.28
2018-12-03T03:51:08.772Z,941.23
2018-12-03T03:52:08.760Z,941.28
2018-12-03T03:53:08.765Z,941.28
2018-12-03T03:54:08.740Z,941.36
2018-12-03T03:55:08.726Z,941.33
2018-12-03T03:56:08.717Z,941.35
2018-12-03T03:57:08.705Z,941.37
2018-12-03T03:58:08.694Z,941.32
2018-12-03T03:59:08.683Z,941.29
2018-12-03T04:00:08.673Z,941.32
2018-12-03T04:01:08.673Z,941.34
2018-12-03T04:02:08.650Z,941.35
2018-12-03T04:03:08.639Z,941.37
2018-12-03T04:04:08.632Z,941.32
2018-12-03T04:05:08.617Z,941.35
2018-12-03T04:06:08.606Z,941.33
2018-12-03T04:07:08.595Z,941.38
2018-12-03T04:08:08.584Z,941.39
2018-12-03T04:09:08.572Z,941.4
2018-12-03T04:10:08.563Z,941.4
2018-12-03T04:11:08.554Z,941.38
2018-12-03T04:12:08.542Z,941.39
2018-12-03T04:13:08.528Z,941.43
2018-12-03T04:14:08.518Z,941.41
2018-12-03T04:15:08.515Z,941.47
2018-12-03T04:16:08.497Z,941.47
2018-12-03T04:17:08.484Z,941.43
2018-12-03T04:18:08.473Z,941.45
2018-12-03T04:19:08.462Z,941.49
2018-12-03T04:20:08.452Z,941.46
2018-12-03T04:21:08.439Z,941.46
2018-12-03T04:22:08.428Z,941.5
2018-12-03T04:23:08.417Z,941.52
2018-12-03T04:24:08.406Z,941.54
2018-12-03T04:25:08.398Z,941.46
2018-12-03T04:26:08.383Z,941.48
2018-12-03T04:27:08.371Z,941.48
2018-12-03T04:28:08.360Z,941.5
2018-12-03T04:29:08.348Z,941.47
2018-12-03T04:30:08.354Z,941.45
2018-12-03T04:31:08.327Z,941.48
2018-12-03T04:32:08.317Z,941.41
2018-12-03T04:33:08.303Z,941.4
2018-12-03T04:34:08.292Z,941.39
2018-12-03T04:35:08.283Z,941.41
2018-12-03T04:36:08.270Z,941.37
2018-12-03T04:37:08.257Z,941.38
2018-12-03T04:38:08.248Z,941.29
2018-12-03T04:39:08.235Z,941.29
2018-12-03T04:40:08.223Z,941.26
2018-12-03T04:41:08.212Z,941.23
2018-12-03T04:42:08.203Z,941.18
2018-12-03T04:43:08.188Z,941.14
2018-12-03T04:44:08.178Z,941.07
2018-12-03T04:45:08.167Z,941.01
2018-12-03T04:46:08.154Z,940.93
2018-12-03T04:47:08.145Z,940.96
2018-12-03T04:48:08.133Z,940.98
2018-12-03T04:49:08.124Z,940.99
2018-12-03T04:50:08.109Z,941.03
2018-12-03T04:51:08.098Z,941.02
2018-12-03T04:52:08.087Z,941
2018-12-03T04:53:08.075Z,940.96
2018-12-03T04:54:08.064Z,941.01
2018-12-03T04:55:08.052Z,941.01
2018-12-03T04:56:08.041Z,940.98
2018-12-03T04:57:08.029Z,940.96
2018-12-03T04:58:08.017Z,941.02
2018-12-03T04:59:08.006Z,941.03
2018-12-03T05:00:07.994Z,940.97
2018-12-03T05:01:07.983Z,940.98
2018-12-03T05:02:07.972Z,940.94
2018-12-03T05:03:07.961Z,940.95
2018-12-03T05:04:07.950Z,940.96
2018-12-03T05:05:07.935Z,941.02
2018-12-03T05:06:07.924Z,940.99
2018-12-03T05:07:07.913Z,940.98
2018-12-03T05:08:07.900Z,940.97
2018-12-03T05:09:07.890Z,940.92
2018-12-03T05:10:07.877Z,940.96
2018-12-03T05:11:07.866Z,940.94
2018-12-03T05:12:07.854Z,940.91
2018-12-03T05:13:07.843Z,940.96
2018-12-03T05:14:07.830Z,940.95
2018-12-03T05:15:07.819Z,940.96
2018-12-03T05:16:07.807Z,940.94
2018-12-03T05:17:07.795Z,940.92
2018-12-03T05:18:07.809Z,940.89
2018-12-03T05:19:07.772Z,940.88
2018-12-03T05:20:07.761Z,940.85
2018-12-03T05:21:07.749Z,940.86
2018-12-03T05:22:07.737Z,940.76
2018-12-03T05:23:07.725Z,940.87
2018-12-03T05:24:07.712Z,940.88
2018-12-03T05:25:07.704Z,940.86
2018-12-03T05:26:07.690Z,940.9
2018-12-03T05:27:07.678Z,940.96
2018-12-03T05:28:07.665Z,940.97
2018-12-03T05:29:07.654Z,940.92
2018-12-03T05:30:07.642Z,940.93
2018-12-03T05:31:07.629Z,940.94
2018-12-03T05:32:07.618Z,940.93
2018-12-03T05:33:07.606Z,940.98
2018-12-03T05:34:07.594Z,940.94
2018-12-03T05:35:07.581Z,940.98
2018-12-03T05:36:07.570Z,941.07
2018-12-03T05:37:07.561Z,941.09
2018-12-03T05:38:07.546Z,941.09
2018-12-03T05:39:07.534Z,941.12
2018-12-03T05:40:07.523Z,941.18
2018-12-03T05:41:07.509Z,941.17
2018-12-03T05:42:07.497Z,941.19
2018-12-03T05:43:07.485Z,941.17
2018-12-03T05:44:07.474Z,941.14
2018-12-03T05:45:07.461Z,941
2018-12-03T05:46:07.449Z,941.13
2018-12-03T05:47:07.437Z,941.13
2018-12-03T05:48:07.425Z,941.2
2018-12-03T05:49:07.414Z,941.21
2018-12-03T05:50:07.401Z,941.23
2018-12-03T05:51:07.390Z,941.25
2018-12-03T05:52:07.378Z,941.26
2018-12-03T05:53:07.365Z,941.19
2018-12-03T05:54:07.354Z,941.25
2018-12-03T05:55:07.343Z,941.15
2018-12-03T05:56:07.329Z,941.17
2018-12-03T05:57:07.318Z,941.15
2018-12-03T05:58:07.306Z,941.11
2018-12-03T05:59:07.293Z,941.08
2018-12-03T06:00:07.282Z,941.09
2018-12-03T06:01:07.270Z,941.15
2018-12-03T06:02:07.258Z,941.2
2018-12-03T06:03:07.247Z,941.19
2018-12-03T06:04:07.234Z,941.24
2018-12-03T06:05:07.222Z,941.26
2018-12-03T06:06:07.210Z,941.29
2018-12-03T06:07:07.197Z,941.23
2018-12-03T06:08:07.186Z,941.22
2018-12-03T06:09:07.174Z,941.3
2018-12-03T06:10:07.161Z,941.31
2018-12-03T06:11:07.150Z,941.41
2018-12-03T06:12:07.138Z,941.42
2018-12-03T06:13:07.126Z,941.47
2018-12-03T06:14:07.113Z,941.47
2018-12-03T06:15:07.102Z,941.43
2018-12-03T06:16:07.090Z,941.43
2018-12-03T06:17:07.079Z,941.45
2018-12-03T06:18:07.067Z,941.37
2018-12-03T06:19:07.055Z,941.38
2018-12-03T06:20:07.043Z,941.46
2018-12-03T06:21:07.031Z,941.39
2018-12-03T06:22:07.019Z,941.42
2018-12-03T06:23:07.007Z,941.47
2018-12-03T06:24:06.995Z,941.46
2018-12-03T06:25:06.985Z,941.47
2018-12-03T06:26:06.972Z,941.52
2018-12-03T06:27:06.960Z,941.47
2018-12-03T06:28:06.949Z,941.46
2018-12-03T06:29:06.938Z,941.56
2018-12-03T06:30:06.925Z,941.56
2018-12-03T06:31:06.913Z,941.58
2018-12-03T06:32:06.901Z,941.61
2018-12-03T06:33:06.889Z,941.63
2018-12-03T06:34:06.878Z,941.62
2018-12-03T06:35:06.867Z,941.66
2018-12-03T06:36:06.853Z,941.65
2018-12-03T06:37:06.843Z,941.69
2018-12-03T06:38:06.832Z,941.69
2018-12-03T06:39:06.821Z,941.67
2018-12-03T06:40:06.808Z,941.72
2018-12-03T06:41:06.800Z,941.69
2018-12-03T06:42:06.785Z,941.68
2018-12-03T06:43:06.773Z,941.62
2018-12-03T06:44:06.761Z,941.67
2018-12-03T06:45:06.750Z,941.69
2018-12-03T06:46:06.739Z,941.7
2018-12-03T06:47:06.726Z,941.7
2018-12-03T06:48:06.715Z,941.7
2018-12-03T06:49:06.712Z,941.7
2018-12-03T06:50:06.692Z,941.7
2018-12-03T06:51:06.682Z,941.71
2018-12-03T06:52:06.670Z,941.7
2018-12-03T06:53:06.659Z,941.72
2018-12-03T06:54:06.644Z,941.7
2018-12-03T06:55:06.634Z,941.7
2018-12-03T06:56:06.622Z,941.68
2018-12-03T06:57:06.611Z,941.63
2018-12-03T06:58:06.599Z,941.73
2018-12-03T06:59:06.587Z,941.69
2018-12-03T07:00:06.576Z,941.74
2018-12-03T07:01:06.566Z,941.75
2018-12-03T07:02:06.552Z,941.8
2018-12-03T07:03:06.542Z,941.78
2018-12-03T07:04:06.530Z,941.74
2018-12-03T07:05:06.517Z,941.75
2018-12-03T07:06:06.506Z,941.68
2018-12-03T07:07:06.498Z,941.69
2018-12-03T07:08:06.483Z,941.74
2018-12-03T07:09:06.471Z,941.77
2018-12-03T07:10:06.464Z,941.77
2018-12-03T07:11:06.448Z,941.71
2018-12-03T07:12:06.437Z,941.72
2018-12-03T07:13:06.425Z,941.68
2018-12-03T07:14:06.414Z,941.7
2018-12-03T07:15:06.402Z,941.69
2018-12-03T07:16:06.390Z,941.67
2018-12-03T07:17:06.380Z,941.66
2018-12-03T07:18:06.367Z,941.64
2018-12-03T07:19:06.356Z,941.69
2018-12-03T07:20:06.344Z,941.7
2018-12-03T07:21:06.333Z,941.61
2018-12-03T07:22:06.325Z,941.69
2018-12-03T07:23:06.311Z,941.74
2018-12-03T07:24:06.300Z,941.74
2018-12-03T07:25:06.288Z,941.71
2018-12-03T07:26:06.277Z,941.77
2018-12-03T07:27:06.265Z,941.81
2018-12-03T07:28:06.255Z,941.79
2018-12-03T07:29:06.244Z,941.78
2018-12-03T07:30:06.232Z,941.82
2018-12-03T07:31:06.219Z,941.91
2018-12-03T07:32:06.208Z,941.95
2018-12-03T07:33:06.197Z,941.91
2018-12-03T07:34:06.185Z,941.91
2018-12-03T07:35:06.174Z,941.89
2018-12-03T07:36:06.163Z,941.92
2018-12-03T07:37:06.154Z,941.9
2018-12-03T07:38:06.140Z,941.93
2018-12-03T07:39:06.136Z,941.91
2018-12-03T07:40:06.117Z,941.98
2018-12-03T07:41:06.106Z,941.95
2018-12-03T07:42:06.095Z,941.98
2018-12-03T07:43:06.084Z,942
2018-12-03T07:44:06.072Z,942
2018-12-03T07:45:06.061Z,941.96
2018-12-03T07:46:06.050Z,941.91
2018-12-03T07:47:06.039Z,941.93
2018-12-03T07:48:06.027Z,941.9
2018-12-03T07:49:06.016Z,941.91
2018-12-03T07:50:06.005Z,941.97
2018-12-03T07:51:05.994Z,941.96
2018-12-03T07:52:05.983Z,941.95
2018-12-03T07:53:05.974Z,941.98
2018-12-03T07:54:05.960Z,941.92
2018-12-03T07:55:05.949Z,942.02
2018-12-03T07:56:05.937Z,941.99
2018-12-03T07:57:05.927Z,942.04
2018-12-03T07:58:05.922Z,942.05
2018-12-03T07:59:05.905Z,942.11
2018-12-03T08:00:05.894Z,942.11
2018-12-03T08:01:05.888Z,942.17
2018-12-03T08:02:05.873Z,942.15
2018-12-03T08:03:05.861Z,942.19
2018-12-03T08:04:05.851Z,942.22
2018-12-03T08:05:05.842Z,942.26
2018-12-03T08:06:05.828Z,942.31
2018-12-03T08:07:05.816Z,942.33
2018-12-03T08:08:05.805Z,942.32
2018-12-03T08:09:05.794Z,942.38
2018-12-03T08:10:05.783Z,942.44
2018-12-03T08:11:05.772Z,942.39
2018-12-03T08:12:05.761Z,942.35
2018-12-03T08:13:05.750Z,942.35
2018-12-03T08:14:05.739Z,942.33
2018-12-03T08:15:05.727Z,942.33
2018-12-03T08:16:05.716Z,942.29
2018-12-03T08:17:05.704Z,942.3
2018-12-03T08:18:05.696Z,942.3
2018-12-03T08:19:05.682Z,942.23
2018-12-03T08:20:05.671Z,942.25
2018-12-03T08:21:05.666Z,942.18
2018-12-03T08:22:05.650Z,942.22
2018-12-03T08:23:05.637Z,942.19
2018-12-03T08:24:05.628Z,942.12
2018-12-03T08:25:05.616Z,942.08
2018-12-03T08:26:05.612Z,942.07
2018-12-03T08:27:05.596Z,941.94
2018-12-03T08:28:05.582Z,941.89
2018-12-03T08:29:05.570Z,941.91
2018-12-03T08:30:05.559Z,941.74
2018-12-03T08:31:05.548Z,941.71
2018-12-03T08:32:05.538Z,941.9
2018-12-03T08:33:05.526Z,942.03
2018-12-03T08:34:05.525Z,942.08
2018-12-03T08:35:05.506Z,942.09
2018-12-03T08:36:05.495Z,942.07
2018-12-03T08:37:05.483Z,942.04
2018-12-03T08:38:05.470Z,942.07
2018-12-03T08:39:05.460Z,942.1
2018-12-03T08:40:05.447Z,942.07
2018-12-03T08:41:05.436Z,942.04
2018-12-03T08:42:05.425Z,942.06
2018-12-03T08:43:05.414Z,942.07
2018-12-03T08:44:05.402Z,942.03
2018-12-03T08:45:05.391Z,941.94
2018-12-03T08:46:05.380Z,941.93
2018-12-03T08:47:05.369Z,941.86
2018-12-03T08:48:05.358Z,941.87
2018-12-03T08:49:05.349Z,941.9
2018-12-03T08:50:05.336Z,941.98
2018-12-03T08:51:05.326Z,942.05
2018-12-03T08:52:05.313Z,942.06
2018-12-03T08:53:05.303Z,942.08
2018-12-03T08:54:05.292Z,942.11
2018-12-03T08:55:05.280Z,942.17
2018-12-03T08:56:05.269Z,942.13
2018-12-03T08:57:05.261Z,942.16
2018-12-03T08:58:05.247Z,942.08
2018-12-03T08:59:05.238Z,942.08
2018-12-03T09:00:05.226Z,942.05
2018-12-03T09:01:05.219Z,942.1
2018-12-03T09:02:05.203Z,942.15
2018-12-03T09:03:05.193Z,942.13
2018-12-03T09:04:05.182Z,942.14
2018-12-03T09:05:05.170Z,942.14
2018-12-03T09:06:05.161Z,942.13
2018-12-03T09:07:05.149Z,942.17
2018-12-03T09:08:05.138Z,942.21
2018-12-03T09:09:05.126Z,942.15
2018-12-03T09:10:05.119Z,942.13
2018-12-03T09:11:05.106Z,942.18
2018-12-03T09:12:05.094Z,942.17
2018-12-03T09:13:05.083Z,942.24
2018-12-03T09:14:05.072Z,942.24
2018-12-03T09:15:05.061Z,942.14
2018-12-03T09:16:05.051Z,942.13
2018-12-03T09:17:05.039Z,942.18
2018-12-03T09:18:05.030Z,942.26
2018-12-03T09:19:05.018Z,942.24
2018-12-03T09:20:05.007Z,942.25
2018-12-03T09:21:04.996Z,942.29
2018-12-03T09:22:04.984Z,942.16
2018-12-03T09:23:04.974Z,942.26
2018-12-03T09:24:04.962Z,942.31
2018-12-03T09:25:04.951Z,942.33
2018-12-03T09:26:04.940Z,942.41
2018-12-03T09:27:04.930Z,942.43
2018-12-03T09:28:04.918Z,942.53
2018-12-03T09:29:04.907Z,942.5
2018-12-03T09:30:04.897Z,942.59
2018-12-03T09:31:04.887Z,942.6
2018-12-03T09:32:04.874Z,942.58
2018-12-03T09:33:04.864Z,942.54
2018-12-03T09:34:04.852Z,942.54
2018-12-03T09:35:04.841Z,942.57
2018-12-03T09:36:04.838Z,942.58
2018-12-03T09:37:04.819Z,942.58
2018-12-03T09:38:04.808Z,942.63
2018-12-03T09:39:04.796Z,942.66
2018-12-03T09:40:04.785Z,942.64
2018-12-03T09:41:05.926Z,942.62
2018-12-03T09:42:05.725Z,942.58
2018-12-03T09:43:04.751Z,942.52
2018-12-03T09:44:04.741Z,942.5
2018-12-03T09:45:04.730Z,942.5
2018-12-03T09:46:04.717Z,942.48
2018-12-03T09:47:04.706Z,942.49
2018-12-03T09:48:04.698Z,942.42
2018-12-03T09:49:04.684Z,942.34
2018-12-03T09:50:04.672Z,942.37
2018-12-03T09:51:04.661Z,942.3
2018-12-03T09:52:04.651Z,942.32
2018-12-03T09:53:04.640Z,942.32
2018-12-03T09:54:04.638Z,942.4
2018-12-03T09:55:04.618Z,942.35
2018-12-03T09:56:04.610Z,942.35
2018-12-03T09:57:04.595Z,942.4
2018-12-03T09:58:04.587Z,942.36
2018-12-03T09:59:04.572Z,942.36
2018-12-03T10:00:04.560Z,942.41
2018-12-03T10:01:04.553Z,942.41
2018-12-03T10:02:04.541Z,942.47
2018-12-03T10:03:04.527Z,942.44
2018-12-03T10:04:04.514Z,942.4
2018-12-03T10:05:04.503Z,942.43
2018-12-03T10:06:04.493Z,942.48
2018-12-03T10:07:04.482Z,942.55
2018-12-03T10:08:04.468Z,942.61
2018-12-03T10:09:04.458Z,942.61
2018-12-03T10:10:04.446Z,942.6
2018-12-03T10:11:04.435Z,942.59
2018-12-03T10:12:04.423Z,942.64
2018-12-03T10:13:04.412Z,942.64
2018-12-03T10:14:04.400Z,942.7
2018-12-03T10:15:04.388Z,942.73
2018-12-03T10:16:04.376Z,942.69
2018-12-03T10:17:04.366Z,942.69
2018-12-03T10:18:04.354Z,942.73
2018-12-03T10:19:04.342Z,942.68
2018-12-03T10:20:04.332Z,942.67
2018-12-03T10:21:04.319Z,942.65
2018-12-03T10:22:04.310Z,942.56
2018-12-03T10:23:04.298Z,942.59
2018-12-03T10:24:04.286Z,942.56
2018-12-03T10:25:04.275Z,942.51
2018-12-03T10:26:04.264Z,942.49
2018-12-03T10:27:04.252Z,942.52
2018-12-03T10:28:04.241Z,942.45
2018-12-03T10:29:04.230Z,942.4
2018-12-03T10:30:04.218Z,942.46
2018-12-03T10:31:04.207Z,942.5
2018-12-03T10:32:04.196Z,942.44
2018-12-03T10:33:04.185Z,942.46
2018-12-03T10:34:04.173Z,942.4
2018-12-03T10:35:04.162Z,942.38
2018-12-03T10:36:04.154Z,942.39
2018-12-03T10:37:04.141Z,942.4
2018-12-03T10:38:04.130Z,942.36
2018-12-03T10:39:04.118Z,942.3
2018-12-03T10:40:04.105Z,942.33
2018-12-03T10:41:04.093Z,942.31
2018-12-03T10:42:04.082Z,942.31
2018-12-03T10:43:04.073Z,942.33
2018-12-03T10:44:04.063Z,942.32
2018-12-03T10:45:04.049Z,942.32
2018-12-03T10:46:04.039Z,942.29
2018-12-03T10:47:04.028Z,942.32
2018-12-03T10:48:04.015Z,942.32
2018-12-03T10:49:04.005Z,942.24
2018-12-03T10:50:03.993Z,942.24
2018-12-03T10:51:03.982Z,942.22
2018-12-03T10:52:03.970Z,942.23
2018-12-03T10:53:03.958Z,942.24
2018-12-03T10:54:03.948Z,942.19
2018-12-03T10:55:03.936Z,942.19
2018-12-03T10:56:03.924Z,942.29
2018-12-03T10:57:03.914Z,942.25
2018-12-03T10:58:03.903Z,942.25
2018-12-03T10:59:03.891Z,942.25
2018-12-03T11:00:03.881Z,942.23
2018-12-03T11:01:03.869Z,942.21
2018-12-03T11:02:03.858Z,942.26
2018-12-03T11:03:03.849Z,942.23
2018-12-03T11:04:03.836Z,942.3
2018-12-03T11:05:03.825Z,942.23
2018-12-03T11:06:03.814Z,942.17
2018-12-03T11:07:03.803Z,942.18
2018-12-03T11:08:03.792Z,942.15
2018-12-03T11:09:03.782Z,942.14
2018-12-03T11:10:03.769Z,942.11
2018-12-03T11:11:03.759Z,942.05
2018-12-03T11:12:03.748Z,942.02
2018-12-03T11:13:03.738Z,941.99
2018-12-03T11:14:03.726Z,941.96
2018-12-03T11:15:03.716Z,941.94
2018-12-03T11:16:03.707Z,941.98
2018-12-03T11:17:03.694Z,941.95
2018-12-03T11:18:03.684Z,941.96
2018-12-03T11:19:03.673Z,942
2018-12-03T11:20:03.665Z,942.02
2018-12-03T11:21:03.651Z,941.98
2018-12-03T11:22:03.641Z,941.97
2018-12-03T11:23:03.631Z,941.98
2018-12-03T11:24:03.620Z,941.88
2018-12-03T11:25:03.609Z,941.92
2018-12-03T11:26:03.598Z,941.87
2018-12-03T11:27:03.587Z,941.88
2018-12-03T11:28:03.576Z,941.86
2018-12-03T11:29:03.565Z,941.9
2018-12-03T11:30:03.555Z,941.86
2018-12-03T11:31:03.545Z,941.83
2018-12-03T11:32:03.536Z,941.82
2018-12-03T11:33:03.524Z,941.87
2018-12-03T11:34:03.511Z,941.9
2018-12-03T11:35:05.901Z,941.83
2018-12-03T11:36:03.493Z,941.86
2018-12-03T11:37:03.481Z,941.88
2018-12-03T11:38:03.470Z,941.81
2018-12-03T11:39:03.458Z,941.77
2018-12-03T11:40:03.448Z,941.74
2018-12-03T11:41:03.438Z,941.73
2018-12-03T11:42:03.426Z,941.72
2018-12-03T11:43:03.417Z,941.7
2018-12-03T11:44:03.406Z,941.7
2018-12-03T11:45:03.396Z,941.7
2018-12-03T11:46:03.384Z,941.69
2018-12-03T11:47:03.375Z,941.68
2018-12-03T11:48:03.364Z,941.67
2018-12-03T11:49:03.353Z,941.63
2018-12-03T11:50:03.343Z,941.64
2018-12-03T11:51:03.331Z,941.7
2018-12-03T11:52:03.322Z,941.63
2018-12-03T11:53:03.313Z,941.64
2018-12-03T11:54:03.300Z,941.62
2018-12-03T11:55:03.291Z,941.62
2018-12-03T11:56:03.280Z,941.68
2018-12-03T11:57:03.270Z,941.68
2018-12-03T11:58:03.259Z,941.71
2018-12-03T11:59:03.299Z,941.62
2018-12-03T12:00:03.238Z,941.59
2018-12-03T12:01:03.228Z,941.48
2018-12-03T12:02:03.217Z,941.5
2018-12-03T12:03:03.206Z,941.43
2018-12-03T12:04:03.197Z,941.58
2018-12-03T12:05:03.192Z,941.65
2018-12-03T12:06:03.176Z,941.62
2018-12-03T12:07:03.167Z,941.6
2018-12-03T12:08:03.156Z,941.67
2018-12-03T12:09:03.147Z,941.59
2018-12-03T12:10:03.136Z,941.6
2018-12-03T12:11:03.127Z,941.61
2018-12-03T12:12:03.115Z,941.65
2018-12-03T12:13:03.105Z,941.58
2018-12-03T12:14:03.096Z,941.58
2018-12-03T12:15:03.091Z,941.54
2018-12-03T12:16:03.075Z,941.53
2018-12-03T12:17:03.068Z,941.47
2018-12-03T12:18:03.055Z,941.53
2018-12-03T12:19:03.486Z,941.48
2018-12-03T12:20:03.035Z,941.51
2018-12-03T12:21:03.027Z,941.54
2018-12-03T12:22:03.014Z,941.5
2018-12-03T12:23:03.004Z,941.57
2018-12-03T12:24:02.995Z,941.55
2018-12-03T12:25:02.984Z,941.42
2018-12-03T12:26:02.976Z,941.5
2018-12-03T12:27:02.965Z,941.51
2018-12-03T12:28:02.955Z,941.46
2018-12-03T12:29:02.946Z,941.46
2018-12-03T12:30:02.935Z,941.43
2018-12-03T12:31:02.924Z,941.46